createdAt,value
2018-01-06T12:11:26.212Z,10.30
2018-01-06T12:13:54.722Z,10.40
2018-01-06T12:16:23.299Z,10.40
2018-01-06T12:18:51.851Z,10.50
2018-01-06T12:21:20.387Z,10.50
2018-01-06T12:23:49.704Z,10.40
2018-01-06T12:26:18.306Z,10.40
2018-01-06T12:28:46.822Z,10.50
2018-01-06T12:31:15.347Z,10.50
2018-01-06T12:33:44.649Z,10.40
2018-01-06T12:36:13.940Z,10.40
2018-01-06T12:38:43.251Z,10.50
2018-01-06T12:41:12.659Z,10.40
2018-01-06T12:43:41.146Z,10.40
2018-01-06T12:46:09.690Z,10.40
2018-01-06T12:48:38.231Z,10.30
2018-01-06T12:51:07.542Z,10.10
2018-01-06T12:53:36.111Z,10.00
2018-01-06T12:56:04.659Z,10.00
2018-01-06T12:58:33.970Z,10.00
2018-01-06T13:01:02.595Z,10.00
2018-01-06T13:03:31.158Z,10.00
2018-01-06T13:05:59.686Z,10.10
2018-01-06T13:08:28.267Z,10.20
2018-01-06T13:10:56.798Z,10.30
2018-01-06T13:13:25.362Z,10.30
2018-01-06T13:15:53.943Z,10.40
2018-01-06T13:18:23.088Z,10.30
2018-01-06T13:20:51.654Z,10.30
2018-01-06T13:23:20.209Z,10.40
2018-01-06T13:25:49.561Z,10.30
2018-01-06T13:28:18.058Z,10.30
2018-01-06T13:30:46.641Z,10.30
2018-01-06T13:33:15.232Z,10.30
2018-01-06T13:35:43.806Z,10.30
2018-01-06T13:38:12.375Z,10.30
2018-01-06T13:40:40.915Z,10.10
2018-01-06T13:43:09.447Z,10.10
2018-01-06T13:45:38.013Z,10.00
2018-01-06T13:48:06.598Z,10.00
2018-01-06T13:50:35.162Z,9.90
2018-01-06T13:53:03.758Z,9.90
2018-01-06T13:55:32.351Z,9.80
2018-01-06T13:58:00.891Z,9.80
2018-01-06T14:00:29.446Z,9.80
2018-01-06T14:02:58.051Z,9.80
2018-01-06T14:05:27.366Z,9.80
2018-01-06T14:07:55.770Z,9.90
2018-01-06T14:10:24.348Z,9.90
2018-01-06T14:12:52.883Z,9.80
2018-01-06T14:15:21.453Z,9.80
2018-01-06T14:17:50.000Z,9.80
2018-01-06T14:20:18.511Z,9.70
2018-01-06T14:22:47.042Z,9.70
2018-01-06T14:28:28.399Z,9.60
2018-01-06T14:30:56.643Z,9.60
2018-01-06T14:33:25.178Z,9.50
2018-01-06T14:35:53.709Z,9.50
2018-01-06T14:38:22.266Z,9.50
2018-01-06T14:40:50.783Z,9.50
2018-01-06T14:43:19.359Z,9.40
2018-01-06T14:45:47.923Z,9.40
2018-01-06T14:48:16.454Z,9.30
2018-01-06T14:50:45.009Z,9.30
2018-01-06T14:53:13.578Z,9.20
2018-01-06T14:55:42.112Z,9.20
2018-01-06T14:58:11.443Z,9.20
2018-01-06T15:00:40.023Z,9.20
2018-01-06T15:03:08.570Z,9.20
2018-01-06T15:05:37.918Z,9.20
2018-01-06T15:08:09.948Z,9.20
2018-01-06T15:10:38.534Z,9.10
2018-01-06T15:13:07.839Z,9.10
2018-01-06T15:15:36.394Z,9.10
2018-01-06T15:18:04.963Z,9.10
2018-01-06T15:20:36.983Z,9.10
2018-01-06T15:23:05.535Z,9.10
2018-01-06T15:25:34.114Z,9.10
2018-01-06T15:28:02.630Z,9.00
2018-01-06T15:30:31.229Z,9.00
2018-01-06T15:32:59.792Z,9.00
2018-01-06T15:35:28.367Z,8.90
2018-01-06T15:37:57.690Z,8.90
2018-01-06T15:40:26.238Z,8.90
2018-01-06T15:42:55.547Z,8.80
2018-01-06T15:45:24.366Z,8.80
2018-01-06T15:47:52.914Z,8.80
2018-01-06T15:50:22.296Z,8.80
2018-01-06T15:52:50.886Z,8.80
2018-01-06T15:55:20.364Z,8.70
2018-01-06T15:57:48.900Z,8.70
2018-01-06T16:00:18.210Z,8.70
2018-01-06T16:02:46.735Z,8.60
2018-01-06T16:05:15.275Z,8.70
2018-01-06T16:07:44.035Z,8.60
2018-01-06T16:10:12.715Z,8.60
2018-01-06T16:12:42.930Z,8.50
2018-01-06T16:15:11.511Z,8.50
2018-01-06T16:17:40.072Z,8.50
2018-01-06T16:20:08.679Z,8.50
2018-01-06T16:22:38.003Z,8.40
2018-01-06T16:25:07.282Z,8.40
2018-01-06T16:27:36.598Z,8.40
2018-01-06T16:30:05.922Z,8.40
2018-01-06T16:32:34.439Z,8.40
2018-01-06T16:35:03.037Z,8.40
2018-01-06T16:37:31.581Z,8.30
2018-01-06T16:40:00.116Z,8.30
2018-01-06T16:42:28.662Z,8.30
2018-01-06T16:44:57.183Z,8.30
2018-01-06T16:47:26.514Z,8.20
2018-01-06T16:49:55.072Z,8.20
2018-01-06T16:52:24.433Z,8.30
2018-01-06T16:54:53.886Z,8.30
2018-01-06T16:57:23.250Z,8.20
2018-01-06T16:59:51.789Z,8.20
2018-01-06T17:02:20.326Z,8.20
2018-01-06T17:04:49.682Z,8.20
2018-01-06T17:07:18.272Z,8.30
2018-01-06T17:09:46.798Z,8.20
2018-01-06T17:12:15.363Z,8.30
2018-01-06T17:14:43.899Z,8.20
2018-01-06T17:17:12.467Z,8.20
2018-01-06T17:19:41.019Z,8.20
2018-01-06T17:22:09.614Z,8.20
2018-01-06T17:24:38.103Z,8.20
2018-01-06T17:27:07.449Z,8.10
2018-01-06T17:29:36.011Z,8.10
2018-01-06T17:32:04.509Z,8.10
2018-01-06T17:34:45.638Z,8.10
2018-01-06T17:37:14.205Z,8.10
2018-01-06T17:39:42.711Z,8.10
2018-01-06T17:42:12.051Z,8.10
2018-01-06T17:44:40.596Z,8.10
2018-01-06T17:47:09.138Z,8.10
2018-01-06T17:49:37.717Z,8.10
2018-01-06T17:52:06.263Z,8.00
2018-01-06T17:54:35.547Z,7.80
2018-01-06T17:57:04.917Z,7.70
2018-01-06T17:59:33.466Z,7.70
2018-01-06T18:02:02.000Z,7.60
2018-01-06T18:04:30.556Z,7.50
2018-01-06T18:06:59.086Z,7.50
2018-01-06T18:09:28.372Z,7.40
2018-01-06T18:11:56.939Z,7.40
2018-01-06T18:14:25.469Z,7.40
2018-01-06T18:16:53.946Z,7.40
2018-01-06T18:19:22.454Z,7.40
2018-01-06T18:21:50.990Z,7.30
2018-01-06T18:24:20.314Z,7.30
2018-01-06T18:26:48.875Z,7.30
2018-01-06T18:29:18.183Z,7.20
2018-01-06T18:31:47.483Z,7.20
2018-01-06T18:34:16.771Z,7.20
2018-01-06T18:36:46.094Z,7.20
2018-01-06T18:39:14.671Z,7.20
2018-01-06T18:41:43.955Z,7.10
2018-01-06T18:44:13.254Z,7.10
2018-01-06T18:46:42.578Z,7.10
2018-01-06T18:49:11.148Z,7.10
2018-01-06T18:51:40.466Z,7.10
2018-01-06T18:54:09.039Z,7.10
2018-01-06T18:56:37.528Z,7.10
2018-01-06T18:59:06.069Z,7.00
2018-01-06T19:01:34.636Z,7.00
2018-01-06T19:04:03.171Z,7.00
2018-01-06T19:06:31.716Z,7.00
2018-01-06T19:09:00.235Z,7.00
2018-01-06T19:11:28.755Z,7.00
2018-01-06T19:13:57.402Z,7.00
2018-01-06T19:16:25.985Z,7.00
2018-01-06T19:18:54.539Z,7.00
2018-01-06T19:21:23.089Z,7.00
2018-01-06T19:23:51.619Z,7.00
2018-01-06T19:26:20.930Z,7.00
2018-01-06T19:28:49.454Z,7.00
2018-01-06T19:31:18.042Z,6.90
2018-01-06T19:33:46.567Z,6.90
2018-01-06T19:36:15.876Z,6.90
2018-01-06T19:38:44.438Z,6.90
2018-01-06T19:41:12.970Z,6.90
2018-01-06T19:43:41.521Z,6.90
2018-01-06T19:46:10.839Z,6.90
2018-01-06T19:48:39.376Z,6.90
2018-01-06T19:51:07.922Z,6.90
2018-01-06T19:53:36.451Z,6.90
2018-01-06T19:56:05.773Z,6.90
2018-01-06T19:58:34.322Z,6.90
2018-01-06T20:01:02.890Z,6.80
2018-01-06T20:03:31.389Z,6.90
2018-01-06T20:05:59.936Z,6.80
2018-01-06T20:08:28.508Z,6.80
2018-01-06T20:10:57.773Z,6.80
2018-01-06T20:13:27.253Z,6.80
2018-01-06T20:15:55.792Z,6.80
2018-01-06T20:18:24.303Z,6.80
2018-01-06T20:20:52.860Z,6.80
2018-01-06T20:23:21.406Z,6.80
2018-01-06T20:26:00.150Z,6.80
2018-01-06T20:28:28.674Z,6.80
2018-01-06T20:30:57.189Z,6.80
2018-01-06T20:33:26.521Z,6.80
2018-01-06T20:35:55.095Z,6.80
2018-01-06T20:38:23.609Z,6.80
2018-01-06T20:40:52.191Z,6.80
2018-01-06T20:43:20.743Z,6.80
2018-01-06T20:45:49.310Z,6.80
2018-01-06T20:48:18.640Z,6.80
2018-01-06T20:50:47.186Z,6.80
2018-01-06T20:53:16.508Z,6.80
2018-01-06T20:55:45.065Z,6.80
2018-01-06T20:58:13.595Z,6.80
2018-01-06T21:00:42.132Z,6.80
2018-01-06T21:03:11.461Z,6.80
2018-01-06T21:05:40.015Z,6.80
2018-01-06T21:08:08.781Z,6.80
2018-01-06T21:10:37.347Z,6.80
2018-01-06T21:13:05.911Z,6.80
2018-01-06T21:15:34.441Z,6.80
2018-01-06T21:18:02.994Z,6.80
2018-01-06T21:20:31.590Z,6.80
2018-01-06T21:23:00.113Z,6.80
2018-01-06T21:25:29.452Z,6.80
2018-01-06T21:27:58.002Z,6.80
2018-01-06T21:30:26.536Z,6.80
2018-01-06T21:32:55.079Z,6.80
2018-01-06T21:35:23.642Z,6.80
2018-01-06T21:37:52.142Z,6.80
2018-01-06T21:40:20.702Z,6.80
2018-01-06T21:42:50.014Z,6.80
2018-01-06T21:45:18.558Z,6.80
2018-01-06T21:47:47.164Z,6.80
2018-01-06T21:50:16.484Z,6.80
2018-01-06T21:52:45.036Z,6.80
2018-01-06T21:55:13.607Z,6.80
2018-01-06T21:57:42.195Z,6.80
2018-01-06T22:00:10.759Z,6.80
2018-01-06T22:02:39.326Z,6.80
2018-01-06T22:05:07.895Z,6.80
2018-01-06T22:07:36.464Z,6.80
2018-01-06T22:10:04.990Z,6.80
2018-01-06T22:12:33.550Z,6.80
2018-01-06T22:15:02.072Z,6.90
2018-01-06T22:17:30.640Z,6.80
2018-01-06T22:19:59.207Z,6.80
2018-01-06T22:22:27.774Z,6.80
2018-01-06T22:24:56.331Z,6.80
2018-01-06T22:27:25.638Z,6.90
2018-01-06T22:29:54.195Z,6.80
2018-01-06T22:32:22.749Z,6.80
2018-01-06T22:34:51.523Z,6.90
2018-01-06T22:37:20.627Z,6.80
2018-01-06T22:39:49.188Z,6.80
2018-01-06T22:42:17.744Z,6.80
2018-01-06T22:44:46.276Z,6.80
2018-01-06T22:47:14.818Z,6.80
2018-01-06T22:49:53.978Z,6.80
2018-01-06T22:52:22.550Z,6.80
2018-01-06T22:54:52.170Z,6.70
2018-01-06T22:57:38.726Z,6.80
2018-01-06T23:00:13.228Z,6.70
2018-01-06T23:02:41.774Z,6.70
2018-01-06T23:05:10.310Z,6.70
2018-01-06T23:07:39.603Z,6.70
2018-01-06T23:10:09.011Z,6.70
2018-01-06T23:12:38.317Z,6.70
2018-01-06T23:15:07.627Z,6.70
2018-01-06T23:17:36.147Z,6.70
2018-01-06T23:20:04.686Z,6.70
2018-01-06T23:22:33.958Z,6.70
2018-01-06T23:25:02.498Z,6.70
2018-01-06T23:27:31.088Z,6.70
2018-01-06T23:29:59.470Z,6.70
2018-01-06T23:32:28.007Z,6.70
2018-01-06T23:34:57.313Z,6.60
2018-01-06T23:37:26.605Z,6.60
2018-01-06T23:39:55.153Z,6.60
2018-01-06T23:42:23.707Z,6.60
2018-01-06T23:44:52.253Z,6.60
2018-01-06T23:47:21.584Z,6.60
2018-01-06T23:49:50.126Z,6.60
2018-01-06T23:52:18.653Z,6.60
2018-01-06T23:54:47.221Z,6.60
2018-01-06T23:57:15.878Z,6.50
2018-01-06T23:59:44.362Z,6.60
